Time;durP1;ratioP1;P1;durP2;ratioP2;P2;SDS_P1;SDS_P2;PMS_P1;PMS_P2;Temp;Humidity;BMP_temperature;BMP_pressure;BME280_temperature;BME280_humidity;BME280_pressure;Samples;Min_cycle;Max_cycle;Signal;HPM_P1;HPM_P2
2023/08/20 00:01:31;;;;;;;3.90;1.52;;;18.40;72.40;;;;;;4949237;28;20647;-71
2023/08/20 00:03:59;;;;;;;4.10;1.70;;;18.40;72.30;;;;;;4928960;28;20188;-71
2023/08/20 00:06:26;;;;;;;4.15;1.70;;;18.40;72.30;;;;;;4951113;28;20984;-72
2023/08/20 00:08:53;;;;;;;4.32;1.60;;;18.40;72.30;;;;;;4943073;28;20598;-72
2023/08/20 00:11:22;;;;;;;3.90;1.70;;;18.30;72.20;;;;;;4927107;29;20636;-72
2023/08/20 00:13:49;;;;;;;3.67;1.80;;;18.30;72.20;;;;;;4926635;29;20337;-71
2023/08/20 00:16:16;;;;;;;3.75;1.52;;;18.30;72.20;;;;;;4943642;28;20055;-71
2023/08/20 00:18:44;;;;;;;4.03;1.75;;;18.30;72.20;;;;;;4925376;29;20056;-72
2023/08/20 00:21:12;;;;;;;3.80;1.50;;;18.30;72.20;;;;;;4927986;28;20143;-71
2023/08/20 00:23:39;;;;;;;2.73;0.90;;;18.20;72.20;;;;;;4940933;28;20052;-71
2023/08/20 00:26:07;;;;;;;3.33;1.30;;;18.20;72.30;;;;;;4928209;28;20273;-71
2023/08/20 00:28:38;;;;;;;3.58;1.40;;;18.10;72.50;;;;;;4942033;28;20084;-71
2023/08/20 00:31:06;;;;;;;6.40;1.98;;;18.10;72.60;;;;;;4941951;28;20578;-72
2023/08/20 00:33:33;;;;;;;5.32;1.88;;;18.00;72.50;;;;;;4924829;28;20192;-71
2023/08/20 00:36:00;;;;;;;3.43;1.40;;;18.00;72.50;;;;;;4936131;28;20083;-72
2023/08/20 00:38:27;;;;;;;5.45;1.65;;;18.00;72.60;;;;;;4951150;28;20379;-71
2023/08/20 00:40:55;;;;;;;3.80;1.70;;;18.00;72.70;;;;;;4925655;29;20055;-71
2023/08/20 00:43:22;;;;;;;5.20;1.50;;;18.00;72.90;;;;;;4925483;28;20107;-71
2023/08/20 00:45:52;;;;;;;3.22;1.20;;;17.90;72.90;;;;;;4941011;28;20850;-71
2023/08/20 00:48:19;;;;;;;3.37;1.57;;;17.90;72.90;;;;;;4926877;29;20056;-71
2023/08/20 00:50:47;;;;;;;4.32;1.55;;;17.90;72.90;;;;;;4927412;28;20351;-71
2023/08/20 00:53:15;;;;;;;4.28;1.75;;;17.90;72.90;;;;;;4926696;29;20060;-71
2023/08/20 00:55:43;;;;;;;5.47;2.13;;;17.80;73.00;;;;;;4941737;28;20511;-72
2023/08/20 00:58:11;;;;;;;6.15;2.10;;;17.80;72.90;;;;;;4926329;28;20052;-71
2023/08/20 01:00:39;;;;;;;6.93;2.23;;;17.80;73.00;;;;;;4925934;29;20056;-71
2023/08/20 01:03:07;;;;;;;4.55;2.17;;;17.80;72.90;;;;;;4942765;28;20268;-72
2023/08/20 01:05:40;;;;;;;5.40;2.10;;;17.80;72.90;;;;;;4925902;29;20052;-71
2023/08/20 01:08:24;;;;;;;5.75;2.25;;;17.80;73.00;;;;;;4927584;28;20052;-71
2023/08/20 01:10:58;;;;;;;5.47;2.20;;;17.70;73.00;;;;;;4942043;28;20108;-71
2023/08/20 01:13:25;;;;;;;6.13;2.37;;;17.60;73.00;;;;;;4926998;29;20187;-72
2023/08/20 01:15:52;;;;;;;4.63;2.33;;;17.60;73.20;;;;;;4925939;28;20658;-72
2023/08/20 01:18:21;;;;;;;4.30;1.75;;;17.60;73.20;;;;;;4940668;28;20052;-71
2023/08/20 01:20:56;;;;;;;3.88;1.48;;;17.50;73.20;;;;;;4942192;28;20102;-71
2023/08/20 01:23:46;;;;;;;3.60;1.80;;;17.50;73.10;;;;;;4939142;28;20051;-72
2023/08/20 01:26:55;;;;;;;4.37;1.97;;;17.40;73.00;;;;;;4951127;28;20048;-71
2023/08/20 01:29:23;;;;;;;5.28;2.38;;;17.40;73.00;;;;;;4889416;29;20273;-71
2023/08/20 01:31:52;;;;;;;5.85;2.45;;;17.30;73.30;;;;;;4888770;29;20056;-72
2023/08/20 01:34:19;;;;;;;4.78;2.20;;;17.20;73.30;;;;;;4905414;29;21140;-72
2023/08/20 01:36:46;;;;;;;5.47;2.53;;;17.30;73.40;;;;;;4925616;29;20054;-72
2023/08/20 01:39:15;;;;;;;6.47;2.67;;;17.30;73.50;;;;;;4924576;28;20076;-71
2023/08/20 01:41:43;;;;;;;10.38;3.75;;;17.30;73.60;;;;;;4948719;28;20245;-71
2023/08/20 01:44:10;;;;;;;7.40;2.33;;;17.20;73.60;;;;;;4924893;29;20056;-72
2023/08/20 01:46:38;;;;;;;5.78;2.33;;;17.20;73.80;;;;;;4925957;29;20676;-71
2023/08/20 01:49:05;;;;;;;5.00;2.40;;;17.20;73.90;;;;;;4928075;28;20060;-71
2023/08/20 01:51:32;;;;;;;5.03;2.70;;;17.20;73.90;;;;;;4936843;28;20187;-72
2023/08/20 01:54:00;;;;;;;4.57;2.35;;;17.10;73.90;;;;;;4942170;28;20253;-71
2023/08/20 01:56:27;;;;;;;4.53;2.70;;;17.10;74.00;;;;;;4938934;28;20108;-71
2023/08/20 01:58:54;;;;;;;7.03;2.50;;;17.10;74.10;;;;;;4924318;28;20083;-72
2023/08/20 02:01:21;;;;;;;7.10;2.80;;;17.10;74.10;;;;;;4909777;29;20135;-71
2023/08/20 02:03:50;;;;;;;6.60;2.60;;;17.10;74.00;;;;;;4942161;28;20072;-71
2023/08/20 02:06:17;;;;;;;7.80;2.90;;;17.10;74.20;;;;;;4948439;28;20296;-72
2023/08/20 02:08:47;;;;;;;6.53;2.85;;;17.10;74.20;;;;;;4928483;29;20056;-72
2023/08/20 02:11:16;;;;;;;5.53;2.70;;;17.10;74.10;;;;;;4929240;29;20048;-71
2023/08/20 02:13:45;;;;;;;4.63;2.20;;;17.10;74.10;;;;;;4928901;29;20052;-72
2023/08/20 02:16:13;;;;;;;6.43;2.97;;;17.00;74.20;;;;;;4944673;28;20088;-71
2023/08/20 02:18:40;;;;;;;6.28;3.00;;;17.00;74.20;;;;;;4929560;28;20825;-71
2023/08/20 02:21:09;;;;;;;6.30;2.88;;;17.00;74.10;;;;;;4943992;28;20519;-72
2023/08/20 02:23:37;;;;;;;7.60;3.17;;;17.00;74.30;;;;;;4944177;28;20106;-71
2023/08/20 02:26:06;;;;;;;10.00;3.70;;;17.00;74.30;;;;;;4944599;28;20135;-72
2023/08/20 02:28:36;;;;;;;10.03;4.77;;;16.90;74.30;;;;;;4951688;28;20150;-71
2023/08/20 02:31:05;;;;;;;9.95;4.28;;;16.90;74.50;;;;;;4927535;29;21112;-71
2023/08/20 02:33:32;;;;;;;7.82;3.30;;;16.80;74.70;;;;;;4927765;28;20105;-71
2023/08/20 02:36:02;;;;;;;7.22;3.17;;;16.80;74.90;;;;;;4927756;28;20041;-71
2023/08/20 02:38:31;;;;;;;8.05;3.47;;;16.80;75.20;;;;;;4928302;28;22177;-71
2023/08/20 02:40:58;;;;;;;7.83;3.87;;;16.80;75.40;;;;;;4910947;29;20050;-71
2023/08/20 02:43:25;;;;;;;8.63;4.20;;;16.70;75.50;;;;;;4928181;29;21340;-71
2023/08/20 02:45:53;;;;;;;8.10;4.43;;;16.70;75.60;;;;;;4928923;28;20092;-72
2023/08/20 02:48:20;;;;;;;7.85;4.35;;;16.70;75.70;;;;;;4927470;28;20523;-72
2023/08/20 02:50:47;;;;;;;7.30;4.20;;;16.70;75.70;;;;;;4928756;29;20052;-71
2023/08/20 02:53:14;;;;;;;7.80;4.23;;;16.70;75.70;;;;;;4949229;28;20052;-71
2023/08/20 02:55:43;;;;;;;9.55;4.80;;;16.60;75.70;;;;;;4928130;29;20260;-71
2023/08/20 02:58:10;;;;;;;8.10;4.63;;;16.60;75.90;;;;;;4927720;29;20045;-71
2023/08/20 03:00:37;;;;;;;9.73;5.15;;;16.60;76.00;;;;;;4944053;28;20102;-71
2023/08/20 03:03:08;;;;;;;7.88;4.97;;;16.60;76.10;;;;;;4935036;28;20944;-71
2023/08/20 03:05:36;;;;;;;7.83;4.17;;;16.60;76.30;;;;;;4926634;29;20154;-71
2023/08/20 03:08:04;;;;;;;9.30;4.80;;;16.60;76.20;;;;;;4926533;28;21294;-71
2023/08/20 03:10:32;;;;;;;8.02;4.30;;;16.60;76.20;;;;;;4927203;29;20056;-71
2023/08/20 03:13:01;;;;;;;8.43;4.88;;;16.60;76.10;;;;;;4927215;29;20540;-71
2023/08/20 03:15:28;;;;;;;8.90;4.82;;;16.60;76.20;;;;;;4928776;28;20052;-71
2023/08/20 03:17:55;;;;;;;10.53;4.73;;;16.60;76.20;;;;;;4927969;29;20127;-71
2023/08/20 03:20:23;;;;;;;8.82;4.93;;;16.60;76.40;;;;;;4929577;28;20280;-71
2023/08/20 03:22:50;;;;;;;8.13;4.30;;;16.60;76.50;;;;;;4925184;28;20135;-71
2023/08/20 03:25:17;;;;;;;7.93;4.47;;;16.60;76.60;;;;;;4928134;29;20680;-71
2023/08/20 03:27:44;;;;;;;7.25;4.72;;;16.60;76.50;;;;;;4928634;28;20067;-71
2023/08/20 03:30:13;;;;;;;8.20;4.90;;;16.60;76.50;;;;;;4928663;28;20855;-72
2023/08/20 03:32:43;;;;;;;8.30;4.50;;;16.60;76.50;;;;;;4941907;28;20267;-71
2023/08/20 03:35:10;;;;;;;7.97;4.63;;;16.60;76.50;;;;;;4951658;28;20610;-71
2023/08/20 03:37:38;;;;;;;7.88;4.68;;;16.50;76.50;;;;;;4927217;28;20151;-71
2023/08/20 03:40:05;;;;;;;9.23;4.30;;;16.50;76.50;;;;;;4941697;28;20056;-71
2023/08/20 03:42:32;;;;;;;6.87;3.70;;;16.50;76.40;;;;;;4943311;28;20052;-71
2023/08/20 03:44:59;;;;;;;6.75;4.40;;;16.50;76.40;;;;;;4950672;28;20262;-71
2023/08/20 03:47:28;;;;;;;8.27;4.60;;;16.50;76.40;;;;;;4927718;28;20522;-71
2023/08/20 03:49:56;;;;;;;8.43;4.28;;;16.50;76.50;;;;;;4928786;28;20231;-71
2023/08/20 03:52:23;;;;;;;8.57;4.70;;;16.50;76.40;;;;;;4926897;28;20498;-71
2023/08/20 03:54:51;;;;;;;6.73;4.37;;;16.50;76.30;;;;;;4926762;29;20496;-71
2023/08/20 03:57:18;;;;;;;8.15;4.25;;;16.50;76.30;;;;;;4935569;28;20308;-71
2023/08/20 03:59:46;;;;;;;8.60;4.25;;;16.50;76.30;;;;;;4926152;29;21017;-71
2023/08/20 04:02:14;;;;;;;8.85;4.10;;;16.50;76.40;;;;;;4942678;28;20578;-71
2023/08/20 04:04:42;;;;;;;6.45;4.10;;;16.50;76.30;;;;;;4925552;28;20047;-72
2023/08/20 04:07:10;;;;;;;7.40;4.50;;;16.40;76.30;;;;;;4936871;28;20143;-71
2023/08/20 04:09:38;;;;;;;7.93;4.40;;;16.40;76.30;;;;;;4942246;28;20276;-71
2023/08/20 04:12:06;;;;;;;7.47;4.40;;;16.40;76.30;;;;;;4942437;28;20056;-72
2023/08/20 04:14:33;;;;;;;7.85;4.38;;;16.40;76.30;;;;;;4924173;28;20054;-71
2023/08/20 04:17:00;;;;;;;7.40;4.00;;;16.40;76.20;;;;;;4926327;29;20681;-71
2023/08/20 04:19:27;;;;;;;7.97;4.20;;;16.40;76.20;;;;;;4941611;28;20139;-71
2023/08/20 04:21:56;;;;;;;6.78;3.95;;;16.40;76.10;;;;;;4925666;29;20388;-71
2023/08/20 04:24:23;;;;;;;7.63;4.03;;;16.40;76.20;;;;;;4924755;28;20983;-71
2023/08/20 04:26:50;;;;;;;6.85;4.30;;;16.40;76.20;;;;;;4948567;28;20498;-71
2023/08/20 04:29:27;;;;;;;7.75;4.45;;;16.40;76.20;;;;;;4942672;28;20067;-71
2023/08/20 04:31:54;;;;;;;6.50;4.10;;;16.40;76.20;;;;;;4925554;28;20056;-71
2023/08/20 04:34:21;;;;;;;6.65;3.58;;;16.30;76.40;;;;;;4924272;28;20261;-71
2023/08/20 04:36:52;;;;;;;6.95;3.63;;;16.40;76.40;;;;;;4925858;28;20048;-71
2023/08/20 04:39:21;;;;;;;5.70;3.58;;;16.30;76.20;;;;;;4948227;28;20068;-71
2023/08/20 04:41:57;;;;;;;6.38;3.28;;;16.30;76.20;;;;;;4926202;29;20451;-71
2023/08/20 04:44:24;;;;;;;5.37;3.13;;;16.30;76.00;;;;;;4933610;28;20131;-71
2023/08/20 04:46:54;;;;;;;5.28;2.75;;;16.30;76.10;;;;;;4940937;28;20277;-71
2023/08/20 04:49:21;;;;;;;4.75;2.20;;;16.30;76.10;;;;;;4942063;28;20056;-71
2023/08/20 04:51:49;;;;;;;5.32;2.30;;;16.30;76.10;;;;;;4924429;28;20056;-71
2023/08/20 04:54:16;;;;;;;4.65;2.30;;;16.30;76.20;;;;;;4926724;29;20725;-71
2023/08/20 04:56:44;;;;;;;5.00;2.90;;;16.30;76.00;;;;;;4942524;28;20059;-71
2023/08/20 04:59:11;;;;;;;7.72;4.07;;;16.30;76.10;;;;;;4946650;28;20241;-71
2023/08/20 05:02:01;;;;;;;10.77;5.00;;;16.30;76.10;;;;;;4926844;28;20060;-71
2023/08/20 05:04:42;;;;;;;10.98;6.30;;;16.30;76.60;;;;;;4925335;29;20054;-71
2023/08/20 05:07:09;;;;;;;11.75;7.00;;;16.20;77.00;;;;;;4949483;28;20055;-71
2023/08/20 05:09:36;;;;;;;13.40;7.27;;;16.20;77.50;;;;;;4933179;28;20053;-71
2023/08/20 05:12:05;;;;;;;12.80;7.40;;;16.20;78.00;;;;;;4941755;28;20292;-71
2023/08/20 05:14:32;;;;;;;10.55;6.43;;;16.20;78.40;;;;;;4949893;28;20056;-71
2023/08/20 05:16:59;;;;;;;12.27;7.28;;;16.20;78.90;;;;;;4941807;28;20063;-71
2023/08/20 05:19:27;;;;;;;13.23;6.70;;;16.20;79.00;;;;;;4925223;29;20589;-71
2023/08/20 05:21:55;;;;;;;11.83;6.87;;;16.20;79.30;;;;;;4940584;28;20052;-72
2023/08/20 05:24:23;;;;;;;11.35;7.00;;;16.20;79.50;;;;;;4941452;28;20326;-71
2023/08/20 05:27:05;;;;;;;10.80;7.07;;;16.20;79.70;;;;;;4910049;29;20048;-72
2023/08/20 05:29:32;;;;;;;10.35;6.07;;;16.20;80.00;;;;;;4951570;28;20978;-71
2023/08/20 05:32:00;;;;;;;11.20;5.93;;;16.20;80.30;;;;;;4909123;28;20139;-71
2023/08/20 05:34:27;;;;;;;11.07;7.30;;;16.20;80.40;;;;;;4924410;28;20052;-71
2023/08/20 05:36:54;;;;;;;11.10;7.00;;;16.20;80.70;;;;;;4924975;29;20801;-71
2023/08/20 05:39:26;;;;;;;14.25;7.85;;;16.20;80.90;;;;;;4941977;28;20301;-71
2023/08/20 05:41:53;;;;;;;13.70;7.95;;;16.20;81.00;;;;;;4949299;28;20056;-71
2023/08/20 05:44:22;;;;;;;13.48;7.72;;;16.20;81.20;;;;;;4938524;28;20502;-71
2023/08/20 05:46:50;;;;;;;11.73;7.60;;;16.30;81.40;;;;;;4925217;28;20060;-72
2023/08/20 05:49:18;;;;;;;11.02;7.45;;;16.30;81.50;;;;;;4924181;28;20268;-71
2023/08/20 05:51:46;;;;;;;11.75;7.78;;;16.40;81.70;;;;;;4924532;29;20131;-71
2023/08/20 05:54:14;;;;;;;14.25;7.80;;;16.40;81.70;;;;;;4927851;29;20062;-71
2023/08/20 05:56:41;;;;;;;12.27;7.53;;;16.40;81.90;;;;;;4941377;28;20059;-71
2023/08/20 05:59:09;;;;;;;12.73;7.23;;;16.40;82.00;;;;;;4950018;28;20569;-71
2023/08/20 06:01:38;;;;;;;12.38;7.18;;;16.50;82.30;;;;;;4928754;28;20260;-71
2023/08/20 06:04:06;;;;;;;10.90;6.97;;;16.50;82.40;;;;;;4934175;28;20057;-71
2023/08/20 06:06:33;;;;;;;11.57;6.78;;;16.50;82.50;;;;;;4953090;28;20059;-71
2023/08/20 06:09:00;;;;;;;13.93;6.95;;;16.60;82.50;;;;;;4931056;28;20052;-71
2023/08/20 06:11:27;;;;;;;12.73;6.43;;;16.60;82.70;;;;;;4944688;28;20147;-71
2023/08/20 06:13:54;;;;;;;11.93;6.72;;;16.70;82.80;;;;;;4944612;28;20273;-73
2023/08/20 06:16:22;;;;;;;11.52;6.57;;;16.70;82.90;;;;;;4944582;28;20060;-72
2023/08/20 06:18:50;;;;;;;11.57;6.53;;;16.70;83.00;;;;;;4941276;28;20136;-72
2023/08/20 06:21:17;;;;;;;12.52;6.72;;;16.80;83.10;;;;;;4912285;28;20175;-72
2023/08/20 06:23:44;;;;;;;13.40;7.00;;;16.80;83.10;;;;;;4932083;28;20055;-73
2023/08/20 06:26:11;;;;;;;12.63;6.22;;;16.90;83.20;;;;;;4943874;28;20286;-72
2023/08/20 06:28:38;;;;;;;11.52;5.70;;;16.90;83.30;;;;;;4943537;28;20136;-72
2023/08/20 06:31:05;;;;;;;11.88;6.25;;;16.90;83.40;;;;;;4944096;28;20052;-74
2023/08/20 06:33:32;;;;;;;13.07;5.68;;;17.00;83.50;;;;;;4939594;28;20140;-75
2023/08/20 06:36:01;;;;;;;12.53;5.77;;;17.00;83.60;;;;;;4928323;28;20536;-75
2023/08/20 06:38:28;;;;;;;11.50;5.75;;;17.00;83.80;;;;;;4924573;29;20277;-75
2023/08/20 06:40:55;;;;;;;10.70;5.55;;;17.10;83.80;;;;;;4922856;29;21027;-75
2023/08/20 06:43:22;;;;;;;9.48;5.47;;;17.20;83.80;;;;;;4923470;29;20173;-75
2023/08/20 06:45:49;;;;;;;12.70;6.05;;;17.20;84.20;;;;;;4923178;29;20517;-76
2023/08/20 06:48:19;;;;;;;12.83;6.03;;;17.30;84.10;;;;;;4941423;28;20051;-76
2023/08/20 06:50:46;;;;;;;11.52;5.50;;;17.40;84.10;;;;;;4941404;28;20833;-75
2023/08/20 06:53:15;;;;;;;12.57;6.20;;;17.40;84.10;;;;;;4923020;29;20582;-75
2023/08/20 06:55:43;;;;;;;14.05;5.90;;;17.50;84.20;;;;;;4925181;29;20052;-75
2023/08/20 06:58:11;;;;;;;11.48;5.15;;;17.50;84.50;;;;;;4927204;29;20753;-76
2023/08/20 07:00:40;;;;;;;16.93;5.60;;;17.60;84.60;;;;;;4912341;29;20052;-75
2023/08/20 07:03:07;;;;;;;14.15;5.88;;;17.60;84.40;;;;;;4927965;28;20276;-76
2023/08/20 07:05:34;;;;;;;12.18;5.82;;;17.70;84.50;;;;;;4926372;28;20535;-75
2023/08/20 07:08:02;;;;;;;11.18;5.13;;;17.80;84.50;;;;;;4928553;29;20044;-74
2023/08/20 07:10:30;;;;;;;9.23;5.28;;;17.80;84.60;;;;;;4925663;29;20058;-75
2023/08/20 07:12:57;;;;;;;8.70;4.83;;;17.80;84.50;;;;;;4943353;28;20531;-74
2023/08/20 07:15:24;;;;;;;10.93;4.63;;;18.00;84.60;;;;;;4926873;29;20281;-75
2023/08/20 07:17:51;;;;;;;11.50;4.55;;;18.00;84.90;;;;;;4945740;28;20063;-75
2023/08/20 07:20:18;;;;;;;10.82;4.40;;;18.10;84.90;;;;;;4931148;28;20052;-75
2023/08/20 07:22:46;;;;;;;11.38;4.97;;;18.20;84.80;;;;;;4945674;28;20120;-75
2023/08/20 07:25:13;;;;;;;12.37;4.70;;;18.20;84.40;;;;;;4931409;28;20060;-75
2023/08/20 07:27:43;;;;;;;12.27;4.28;;;18.30;84.30;;;;;;4932009;28;20619;-75
2023/08/20 07:30:10;;;;;;;11.15;3.80;;;18.40;84.50;;;;;;4930643;29;20052;-74
2023/08/20 07:32:37;;;;;;;12.43;3.42;;;18.40;84.50;;;;;;4930169;28;21028;-76
2023/08/20 07:35:05;;;;;;;11.73;3.22;;;18.50;84.20;;;;;;4932010;28;20099;-75
2023/08/20 07:37:32;;;;;;;10.17;3.10;;;18.60;83.90;;;;;;4929806;29;20080;-74
2023/08/20 07:39:59;;;;;;;9.55;3.28;;;18.60;83.70;;;;;;4946438;28;20277;-75
2023/08/20 07:42:26;;;;;;;9.43;3.58;;;18.70;83.60;;;;;;4946512;28;20534;-74
2023/08/20 07:44:55;;;;;;;10.50;2.95;;;18.70;83.30;;;;;;4945827;28;20048;-74
2023/08/20 07:47:22;;;;;;;11.15;3.67;;;18.80;83.30;;;;;;4930199;29;20535;-74
2023/08/20 07:49:49;;;;;;;10.13;3.00;;;18.80;83.50;;;;;;4930574;28;20132;-75
2023/08/20 07:52:16;;;;;;;10.93;3.08;;;18.90;83.20;;;;;;4944648;28;20281;-75
2023/08/20 07:54:44;;;;;;;12.00;3.03;;;18.90;82.90;;;;;;4929101;28;20514;-73
2023/08/20 07:57:11;;;;;;;11.30;3.38;;;19.00;82.80;;;;;;4930638;28;20107;-73
2023/08/20 07:59:38;;;;;;;10.52;3.08;;;19.00;82.70;;;;;;4929614;29;20052;-71
2023/08/20 08:02:07;;;;;;;9.77;3.03;;;19.10;82.40;;;;;;4930139;28;20052;-71
2023/08/20 08:04:35;;;;;;;12.00;3.30;;;19.20;82.40;;;;;;4911978;29;20293;-70
2023/08/20 08:07:02;;;;;;;8.32;2.95;;;19.20;82.20;;;;;;4916513;29;20052;-70
2023/08/20 08:09:31;;;;;;;9.90;2.80;;;19.30;82.10;;;;;;4944755;28;20048;-71
2023/08/20 08:12:00;;;;;;;9.43;3.05;;;19.30;81.90;;;;;;4929493;28;20048;-71
2023/08/20 08:14:27;;;;;;;9.17;2.80;;;19.30;81.90;;;;;;4928390;28;20062;-71
2023/08/20 08:16:54;;;;;;;12.60;2.15;;;19.40;81.80;;;;;;4944242;28;20248;-71
2023/08/20 08:19:23;;;;;;;10.23;2.50;;;19.50;81.60;;;;;;4929398;29;20104;-71
2023/08/20 08:21:50;;;;;;;10.45;2.35;;;19.50;81.30;;;;;;4930613;28;20056;-71
2023/08/20 08:24:17;;;;;;;9.63;1.90;;;19.50;81.10;;;;;;4930827;28;20059;-72
2023/08/20 08:26:44;;;;;;;9.40;1.73;;;19.70;80.80;;;;;;4929173;28;20056;-71
2023/08/20 08:29:11;;;;;;;5.63;1.60;;;19.70;80.50;;;;;;4928785;28;20735;-71
2023/08/20 08:31:39;;;;;;;8.00;2.30;;;19.70;79.70;;;;;;4928829;28;20052;-71
2023/08/20 08:34:06;;;;;;;10.65;1.80;;;19.90;79.50;;;;;;4944393;28;20116;-71
2023/08/20 08:36:34;;;;;;;7.93;2.13;;;19.90;79.00;;;;;;4928468;28;20917;-70
2023/08/20 08:39:02;;;;;;;7.87;1.83;;;20.00;78.60;;;;;;4929385;29;20052;-70
2023/08/20 08:41:31;;;;;;;9.65;2.40;;;20.00;78.70;;;;;;4929495;28;20295;-70
2023/08/20 08:43:58;;;;;;;9.63;1.92;;;20.00;78.60;;;;;;4927815;29;20058;-71
2023/08/20 08:46:26;;;;;;;7.38;2.10;;;20.10;77.80;;;;;;4930412;28;20919;-70
2023/08/20 08:48:53;;;;;;;6.97;1.88;;;20.10;77.40;;;;;;4945072;28;20058;-71
2023/08/20 08:51:21;;;;;;;8.13;1.97;;;20.20;76.50;;;;;;4929337;28;20849;-70
2023/08/20 08:53:49;;;;;;;6.47;1.92;;;20.30;76.60;;;;;;4931520;28;20292;-71
2023/08/20 08:56:18;;;;;;;11.10;2.08;;;20.30;76.70;;;;;;4938216;28;20165;-71
2023/08/20 08:58:45;;;;;;;7.53;2.13;;;20.40;76.40;;;;;;4930856;28;20062;-71
2023/08/20 09:01:12;;;;;;;9.75;2.05;;;20.50;76.10;;;;;;4929939;28;20147;-71
2023/08/20 09:03:39;;;;;;;8.83;1.50;;;20.50;76.50;;;;;;4929322;29;20116;-71
2023/08/20 09:06:09;;;;;;;6.95;1.70;;;20.60;75.50;;;;;;4929152;29;21239;-71
2023/08/20 09:08:37;;;;;;;7.47;1.70;;;20.60;75.30;;;;;;4930234;28;20556;-71
2023/08/20 09:11:06;;;;;;;5.57;1.38;;;20.70;74.80;;;;;;4930447;28;20062;-71
2023/08/20 09:13:35;;;;;;;7.78;1.85;;;20.80;74.60;;;;;;4929511;28;20080;-71
2023/08/20 09:16:05;;;;;;;7.57;1.70;;;20.80;74.50;;;;;;4945780;28;20048;-71
2023/08/20 09:18:32;;;;;;;7.95;1.73;;;20.90;74.20;;;;;;4943630;28;20269;-71
2023/08/20 09:21:00;;;;;;;8.65;1.58;;;20.90;73.90;;;;;;4943573;28;20143;-71
2023/08/20 09:23:30;;;;;;;6.25;1.33;;;21.00;74.10;;;;;;4944120;28;20103;-71
2023/08/20 09:25:57;;;;;;;5.65;1.30;;;21.00;73.50;;;;;;4909079;29;20052;-71
2023/08/20 09:28:26;;;;;;;8.20;1.70;;;21.10;72.70;;;;;;4927169;29;20052;-71
2023/08/20 09:30:57;;;;;;;8.88;1.40;;;21.10;73.80;;;;;;4943826;28;20283;-72
2023/08/20 09:33:24;;;;;;;6.43;1.30;;;21.20;72.80;;;;;;4943070;28;20744;-71
2023/08/20 09:35:53;;;;;;;6.38;1.50;;;21.30;71.30;;;;;;4943562;28;20062;-71
2023/08/20 09:38:22;;;;;;;6.47;1.50;;;21.30;71.20;;;;;;4942231;28;20155;-72
2023/08/20 09:40:52;;;;;;;6.33;1.40;;;21.40;71.70;;;;;;4926821;29;20134;-72
2023/08/20 09:43:19;;;;;;;9.65;1.70;;;21.40;70.90;;;;;;4929482;28;20284;-72
2023/08/20 09:45:49;;;;;;;6.43;1.38;;;21.50;71.00;;;;;;4929617;28;20056;-71
2023/08/20 09:48:20;;;;;;;5.82;1.40;;;21.50;71.20;;;;;;4943990;28;20545;-71
2023/08/20 09:50:48;;;;;;;6.63;1.10;;;21.50;71.50;;;;;;4929665;28;20059;-71
2023/08/20 09:53:26;;;;;;;6.97;1.43;;;21.60;70.30;;;;;;4930156;28;20083;-71
2023/08/20 09:55:53;;;;;;;5.53;0.90;;;21.70;69.70;;;;;;4944839;28;20277;-71
2023/08/20 09:58:25;;;;;;;4.85;1.40;;;21.70;69.30;;;;;;4931374;28;20067;-71
2023/08/20 10:00:54;;;;;;;6.00;1.30;;;21.70;69.20;;;;;;4943639;28;20072;-71
2023/08/20 10:03:22;;;;;;;6.05;1.20;;;21.70;68.00;;;;;;4948766;28;20151;-71
2023/08/20 10:05:50;;;;;;;5.83;1.10;;;21.70;68.50;;;;;;4929657;28;20058;-72
2023/08/20 10:08:18;;;;;;;6.60;1.08;;;21.80;68.50;;;;;;4944769;28;20392;-71
2023/08/20 10:10:55;;;;;;;6.57;1.63;;;21.90;68.30;;;;;;4944805;28;20204;-72
2023/08/20 10:13:22;;;;;;;5.78;1.30;;;21.90;68.60;;;;;;4944639;28;21224;-71
2023/08/20 10:15:50;;;;;;;5.15;1.20;;;21.90;69.50;;;;;;4944460;28;20049;-71
2023/08/20 10:18:21;;;;;;;5.40;1.10;;;21.90;69.70;;;;;;4948224;28;20055;-71
2023/08/20 10:20:51;;;;;;;5.90;1.00;;;22.00;68.60;;;;;;4929655;28;20253;-72
2023/08/20 10:23:22;;;;;;;5.72;1.30;;;22.00;68.70;;;;;;4946648;28;20056;-72
2023/08/20 10:25:52;;;;;;;6.35;1.08;;;22.10;68.10;;;;;;4944231;28;20088;-72
2023/08/20 10:28:22;;;;;;;6.10;1.17;;;22.10;68.60;;;;;;4929781;28;20139;-72
2023/08/20 10:31:07;;;;;;;4.60;1.00;;;22.10;67.80;;;;;;4931431;29;20135;-71
2023/08/20 10:33:37;;;;;;;5.00;1.10;;;22.20;67.90;;;;;;4946237;28;20268;-71
2023/08/20 10:36:17;;;;;;;7.50;1.48;;;22.20;67.20;;;;;;4930869;29;20499;-72
2023/08/20 10:38:46;;;;;;;5.38;1.33;;;22.20;67.70;;;;;;4945228;28;20213;-73
2023/08/20 10:41:16;;;;;;;5.90;1.83;;;22.30;68.00;;;;;;4933052;28;20052;-72
2023/08/20 10:43:48;;;;;;;6.87;1.60;;;22.30;67.60;;;;;;4930492;28;20056;-73
2023/08/20 10:46:18;;;;;;;7.05;1.30;;;22.30;67.50;;;;;;4955031;28;20702;-73
2023/08/20 10:48:49;;;;;;;6.10;1.13;;;22.40;67.10;;;;;;4929057;29;20131;-73
2023/08/20 10:51:17;;;;;;;4.55;0.80;;;22.40;66.50;;;;;;4930678;29;20144;-73
2023/08/20 10:54:03;;;;;;;6.93;1.05;;;22.50;65.40;;;;;;4930610;29;20516;-73
2023/08/20 10:56:39;;;;;;;5.13;1.30;;;22.50;65.00;;;;;;4932790;28;20082;-73
2023/08/20 10:59:08;;;;;;;4.32;0.93;;;22.50;65.00;;;;;;4932180;28;20296;-73
2023/08/20 11:01:36;;;;;;;4.28;1.08;;;22.50;65.60;;;;;;4946284;28;20111;-73
2023/08/20 11:04:07;;;;;;;6.75;1.17;;;22.50;65.60;;;;;;4948284;28;20521;-74
2023/08/20 11:06:34;;;;;;;5.18;0.90;;;22.60;65.70;;;;;;4945967;28;20049;-73
2023/08/20 11:09:05;;;;;;;5.93;1.37;;;22.60;65.40;;;;;;4946041;28;20160;-73
2023/08/20 11:11:33;;;;;;;5.00;0.90;;;22.70;64.70;;;;;;4929480;29;20277;-73
2023/08/20 11:14:07;;;;;;;5.15;1.30;;;22.70;64.60;;;;;;4945161;28;20533;-73
2023/08/20 11:16:35;;;;;;;5.15;0.90;;;22.80;65.00;;;;;;4949291;28;20052;-73
2023/08/20 11:19:05;;;;;;;5.43;1.00;;;22.80;64.00;;;;;;4926873;28;21038;-74
2023/08/20 11:21:34;;;;;;;4.97;0.87;;;22.90;63.80;;;;;;4926317;28;20060;-73
2023/08/20 11:24:01;;;;;;;2.97;0.50;;;22.90;63.90;;;;;;4927180;28;20295;-73
2023/08/20 11:26:28;;;;;;;4.68;0.80;;;23.00;63.10;;;;;;4927597;28;20392;-73
2023/08/20 11:28:55;;;;;;;4.05;0.82;;;23.00;62.80;;;;;;4940846;28;20056;-73
2023/08/20 11:31:23;;;;;;;4.10;0.75;;;23.00;61.60;;;;;;4927595;28;20048;-73
2023/08/20 11:33:50;;;;;;;3.20;0.70;;;23.00;61.90;;;;;;4950245;28;20044;-71
2023/08/20 11:36:20;;;;;;;4.13;0.73;;;23.10;61.40;;;;;;4944967;28;20363;-71
2023/08/20 11:38:52;;;;;;;4.25;0.80;;;23.10;60.50;;;;;;4944487;28;20055;-70
2023/08/20 11:41:19;;;;;;;4.20;0.90;;;23.10;61.40;;;;;;4945845;28;20053;-71
2023/08/20 11:43:46;;;;;;;3.63;0.70;;;23.10;61.70;;;;;;4938478;28;20058;-71
2023/08/20 11:46:14;;;;;;;3.37;0.77;;;23.20;61.40;;;;;;4932052;28;20048;-71
2023/08/20 11:49:00;;;;;;;2.75;0.60;;;23.20;60.60;;;;;;4946579;28;20746;-71
2023/08/20 11:51:27;;;;;;;4.55;0.77;;;23.20;59.50;;;;;;4930243;29;20490;-71
2023/08/20 11:53:57;;;;;;;4.82;0.70;;;23.30;60.20;;;;;;4931912;28;20066;-72
2023/08/20 11:56:25;;;;;;;3.60;0.65;;;23.40;59.40;;;;;;4930458;29;20089;-71
2023/08/20 11:58:52;;;;;;;4.50;0.80;;;23.40;59.60;;;;;;4931841;28;20058;-72
2023/08/20 12:01:19;;;;;;;2.53;0.52;;;23.40;60.50;;;;;;4930095;29;20779;-72
2023/08/20 12:03:47;;;;;;;3.58;0.43;;;23.40;59.60;;;;;;4930105;28;20062;-72
2023/08/20 12:06:23;;;;;;;3.25;0.90;;;23.50;59.60;;;;;;4949846;28;20116;-72
2023/08/20 12:08:50;;;;;;;4.00;0.80;;;23.50;59.80;;;;;;4946298;28;20060;-72
2023/08/20 12:11:18;;;;;;;2.53;0.60;;;23.50;60.40;;;;;;4946015;28;20048;-72
2023/08/20 12:13:45;;;;;;;3.88;1.02;;;23.50;60.00;;;;;;4946440;28;20401;-72
2023/08/20 12:16:13;;;;;;;4.40;0.65;;;23.60;60.30;;;;;;4946039;28;21003;-71
2023/08/20 12:18:40;;;;;;;4.05;0.82;;;23.60;59.20;;;;;;4930304;29;20048;-72
2023/08/20 12:21:07;;;;;;;4.05;0.75;;;23.60;60.00;;;;;;4911160;29;20115;-72
2023/08/20 12:23:34;;;;;;;3.23;0.70;;;23.70;60.40;;;;;;4927864;28;20048;-72
2023/08/20 12:26:02;;;;;;;3.63;0.80;;;23.80;60.50;;;;;;4945993;28;20269;-72
2023/08/20 12:28:30;;;;;;;2.33;0.50;;;23.80;60.20;;;;;;4946209;28;20064;-72
2023/08/20 12:30:57;;;;;;;3.22;0.80;;;23.90;58.50;;;;;;4931397;28;20060;-72
2023/08/20 12:33:24;;;;;;;3.78;0.73;;;23.90;58.90;;;;;;4946288;28;20144;-72
2023/08/20 12:35:54;;;;;;;4.97;1.10;;;23.90;58.90;;;;;;4946168;28;20052;-72
2023/08/20 12:38:21;;;;;;;5.18;0.70;;;24.00;60.10;;;;;;4929953;29;20392;-72
2023/08/20 12:40:49;;;;;;;4.80;0.80;;;24.00;60.60;;;;;;4931802;28;20048;-72
2023/08/20 12:43:16;;;;;;;4.95;0.98;;;24.00;60.10;;;;;;4931558;28;20060;-72
2023/08/20 12:45:44;;;;;;;6.05;1.00;;;24.10;59.30;;;;;;4945860;28;20056;-72
2023/08/20 12:48:13;;;;;;;2.93;0.60;;;24.20;58.60;;;;;;4945461;28;20080;-72
2023/08/20 12:50:40;;;;;;;4.93;1.00;;;24.20;59.20;;;;;;4945627;28;20285;-72
2023/08/20 12:53:07;;;;;;;5.25;1.10;;;24.20;59.70;;;;;;4946601;28;20052;-72